KPSK

New River Valley Airport

Dublin, Virginia, USA
METAR KPSK 250455Z AUTO 00000KT 10SM SCT060 19/16 A3022 RMK AO2 T01870160
Observed Flight Rules
May-25 @ 04:55 UTC (34 minutes ago) Visual Flight Rules
Visibility Clouds
10 miles
  • Scattered at 6,000' AGL
Temperatures Readings
Current 19°C / 66°F
Dewpoint 16°C / 61°F
Humidity 83%
Altimeter 30.22" Hg
Pressure 1023 hPa
Elevation 642
METAR KPSK 250455Z AUTO 00000KT 10SM SCT060 19/16 A3022 RMK AO2 T01870160
Observed Flight Rules
May-25 @ 04:55 UTC
(34 minutes ago)
VFR
Clouds
  • Scattered at 6,000' AGL
Temperature Dewpoint
19°C / 66°F 16°C / 61°F
Humidity Altimeter Pressure
83% 30.22" Hg 1023 hPa